sensor_id;sensor_type;location;lat;lon;timestamp;noise_LAeq;noise_LA_min;noise_LA_max;noise_LA01;noise_LA95
49732;Laerm;43666;51.442;6.778;2023-02-07T00:02:13;36.69;28.67;40.03;;
49732;Laerm;43666;51.442;6.778;2023-02-07T00:04:39;36.71;28.67;40.23;;
49732;Laerm;43666;51.442;6.778;2023-02-07T00:07:05;36.55;29.57;41.22;;
49732;Laerm;43666;51.442;6.778;2023-02-07T00:09:31;36.65;28.67;40.33;;
49732;Laerm;43666;51.442;6.778;2023-02-07T00:11:57;36.52;29.92;40.23;;
49732;Laerm;43666;51.442;6.778;2023-02-07T00:14:23;36.45;26.91;40.13;;
49732;Laerm;43666;51.442;6.778;2023-02-07T00:16:48;36.53;29.57;39.81;;
49732;Laerm;43666;51.442;6.778;2023-02-07T00:19:14;36.52;26.91;39.92;;
49732;Laerm;43666;51.442;6.778;2023-02-07T00:21:41;36.52;28.67;40.13;;
49732;Laerm;43666;51.442;6.778;2023-02-07T00:24:06;36.39;26.91;39.92;;
49732;Laerm;43666;51.442;6.778;2023-02-07T00:26:32;36.43;28.67;39.58;;
49732;Laerm;43666;51.442;6.778;2023-02-07T00:28:58;36.45;26.91;40.13;;
49732;Laerm;43666;51.442;6.778;2023-02-07T00:31:25;36.46;26.91;39.70;;
49732;Laerm;43666;51.442;6.778;2023-02-07T00:33:51;36.51;28.67;39.92;;
49732;Laerm;43666;51.442;6.778;2023-02-07T00:36:21;36.58;28.67;40.23;;
49732;Laerm;43666;51.442;6.778;2023-02-07T00:38:47;36.57;23.90;40.13;;
49732;Laerm;43666;51.442;6.778;2023-02-07T00:41:13;36.49;29.92;40.23;;
49732;Laerm;43666;51.442;6.778;2023-02-07T00:43:42;36.50;26.91;40.03;;
49732;Laerm;43666;51.442;6.778;2023-02-07T00:46:08;36.42;26.91;39.81;;
49732;Laerm;43666;51.442;6.778;2023-02-07T00:48:33;36.42;28.67;39.70;;
49732;Laerm;43666;51.442;6.778;2023-02-07T00:51:00;36.40;28.67;39.92;;
49732;Laerm;43666;51.442;6.778;2023-02-07T00:53:26;36.47;28.67;39.70;;
49732;Laerm;43666;51.442;6.778;2023-02-07T00:55:52;36.49;28.67;40.03;;
49732;Laerm;43666;51.442;6.778;2023-02-07T00:58:18;36.39;28.67;39.92;;
49732;Laerm;43666;51.442;6.778;2023-02-07T01:00:44;36.44;26.91;39.81;;
49732;Laerm;43666;51.442;6.778;2023-02-07T01:03:09;36.46;28.67;40.13;;
49732;Laerm;43666;51.442;6.778;2023-02-07T01:05:35;36.46;5.00;39.70;;
49732;Laerm;43666;51.442;6.778;2023-02-07T01:08:01;36.44;23.90;40.33;;
49732;Laerm;43666;51.442;6.778;2023-02-07T01:10:26;36.43;26.91;39.58;;
49732;Laerm;43666;51.442;6.778;2023-02-07T01:12:52;36.34;28.67;39.81;;
49732;Laerm;43666;51.442;6.778;2023-02-07T01:15:18;36.35;5.00;39.92;;
49732;Laerm;43666;51.442;6.778;2023-02-07T01:17:44;36.31;28.67;39.34;;
49732;Laerm;43666;51.442;6.778;2023-02-07T01:20:10;36.34;26.91;39.92;;
49732;Laerm;43666;51.442;6.778;2023-02-07T01:22:37;36.31;26.91;40.03;;
49732;Laerm;43666;51.442;6.778;2023-02-07T01:25:04;36.39;26.91;39.70;;
49732;Laerm;43666;51.442;6.778;2023-02-07T01:27:29;36.34;28.67;40.43;;
49732;Laerm;43666;51.442;6.778;2023-02-07T01:29:55;36.36;26.91;39.92;;
49732;Laerm;43666;51.442;6.778;2023-02-07T01:32:21;36.34;29.92;39.58;;
49732;Laerm;43666;51.442;6.778;2023-02-07T01:34:47;36.33;26.91;39.81;;
49732;Laerm;43666;51.442;6.778;2023-02-07T01:37:13;36.40;29.57;39.92;;
49732;Laerm;43666;51.442;6.778;2023-02-07T01:39:39;36.45;28.67;39.92;;
49732;Laerm;43666;51.442;6.778;2023-02-07T01:42:04;36.41;29.92;39.92;;
49732;Laerm;43666;51.442;6.778;2023-02-07T01:47:01;36.37;28.67;39.46;;
49732;Laerm;43666;51.442;6.778;2023-02-07T01:49:28;36.42;29.57;39.70;;
49732;Laerm;43666;51.442;6.778;2023-02-07T01:52:02;36.36;28.67;39.58;;
49732;Laerm;43666;51.442;6.778;2023-02-07T01:54:29;36.32;28.67;39.58;;
49732;Laerm;43666;51.442;6.778;2023-02-07T01:57:00;36.27;26.91;39.35;;
49732;Laerm;43666;51.442;6.778;2023-02-07T01:59:28;36.28;28.67;39.92;;
49732;Laerm;43666;51.442;6.778;2023-02-07T02:01:57;36.24;29.92;40.13;;
49732;Laerm;43666;51.442;6.778;2023-02-07T02:04:25;36.21;28.67;40.03;;
49732;Laerm;43666;51.442;6.778;2023-02-07T02:06:51;36.19;28.67;39.81;;
49732;Laerm;43666;51.442;6.778;2023-02-07T02:09:19;36.18;26.91;39.70;;
49732;Laerm;43666;51.442;6.778;2023-02-07T02:14:29;36.19;28.67;39.58;;
49732;Laerm;43666;51.442;6.778;2023-02-07T02:17:13;36.14;26.91;39.70;;
49732;Laerm;43666;51.442;6.778;2023-02-07T02:22:27;36.15;26.91;39.58;;
49732;Laerm;43666;51.442;6.778;2023-02-07T02:27:56;36.15;23.90;39.58;;
49732;Laerm;43666;51.442;6.778;2023-02-07T02:38:33;36.11;23.55;39.58;;
49732;Laerm;43666;51.442;6.778;2023-02-07T02:41:04;36.18;28.67;39.58;;
49732;Laerm;43666;51.442;6.778;2023-02-07T02:43:44;36.23;26.91;39.81;;
49732;Laerm;43666;51.442;6.778;2023-02-07T02:46:14;36.20;23.90;39.70;;
49732;Laerm;43666;51.442;6.778;2023-02-07T02:48:42;36.16;26.91;39.92;;
49732;Laerm;43666;51.442;6.778;2023-02-07T02:51:09;36.07;26.91;39.81;;
49732;Laerm;43666;51.442;6.778;2023-02-07T02:53:34;36.08;26.91;39.89;;
49732;Laerm;43666;51.442;6.778;2023-02-07T03:01:07;36.16;28.67;39.70;;
49732;Laerm;43666;51.442;6.778;2023-02-07T03:11:19;36.17;23.90;39.92;;
49732;Laerm;43666;51.442;6.778;2023-02-07T03:14:06;36.13;26.91;40.03;;
49732;Laerm;43666;51.442;6.778;2023-02-07T03:16:39;36.14;28.67;39.58;;
49732;Laerm;43666;51.442;6.778;2023-02-07T03:19:18;36.27;26.91;40.03;;
49732;Laerm;43666;51.442;6.778;2023-02-07T03:21:50;36.22;26.91;39.92;;
49732;Laerm;43666;51.442;6.778;2023-02-07T03:24:20;36.15;26.91;39.46;;
49732;Laerm;43666;51.442;6.778;2023-02-07T03:26:46;36.19;28.67;40.13;;
49732;Laerm;43666;51.442;6.778;2023-02-07T03:29:13;36.17;28.67;39.46;;
49732;Laerm;43666;51.442;6.778;2023-02-07T03:31:40;36.17;26.91;39.92;;
49732;Laerm;43666;51.442;6.778;2023-02-07T03:34:10;36.13;28.67;39.58;;
49732;Laerm;43666;51.442;6.778;2023-02-07T03:39:04;36.07;28.67;39.21;;
49732;Laerm;43666;51.442;6.778;2023-02-07T03:41:31;36.10;23.90;39.46;;
49732;Laerm;43666;51.442;6.778;2023-02-07T03:43:58;36.09;28.67;40.71;;
49732;Laerm;43666;51.442;6.778;2023-02-07T03:46:33;36.10;28.67;39.81;;
49732;Laerm;43666;51.442;6.778;2023-02-07T03:49:01;36.11;26.91;39.46;;
49732;Laerm;43666;51.442;6.778;2023-02-07T03:51:28;36.13;26.91;39.70;;
49732;Laerm;43666;51.442;6.778;2023-02-07T03:53:54;36.05;26.91;40.43;;
49732;Laerm;43666;51.442;6.778;2023-02-07T03:56:20;36.13;23.90;39.81;;
49732;Laerm;43666;51.442;6.778;2023-02-07T03:58:47;36.10;28.67;40.13;;
49732;Laerm;43666;51.442;6.778;2023-02-07T04:01:13;36.10;26.91;39.34;;
49732;Laerm;43666;51.442;6.778;2023-02-07T04:03:40;36.16;26.91;40.13;;
49732;Laerm;43666;51.442;6.778;2023-02-07T04:06:06;36.17;26.91;39.34;;
49732;Laerm;43666;51.442;6.778;2023-02-07T04:08:32;36.15;26.91;39.58;;
49732;Laerm;43666;51.442;6.778;2023-02-07T04:10:58;36.18;26.91;39.81;;
49732;Laerm;43666;51.442;6.778;2023-02-07T04:13:24;36.19;26.91;39.46;;
49732;Laerm;43666;51.442;6.778;2023-02-07T04:15:50;36.30;23.90;39.57;;
49732;Laerm;43666;51.442;6.778;2023-02-07T04:18:16;36.31;26.91;39.58;;
49732;Laerm;43666;51.442;6.778;2023-02-07T04:20:42;36.36;26.91;39.81;;
49732;Laerm;43666;51.442;6.778;2023-02-07T04:23:07;36.31;29.57;39.70;;
49732;Laerm;43666;51.442;6.778;2023-02-07T04:25:33;36.30;26.91;39.70;;
49732;Laerm;43666;51.442;6.778;2023-02-07T04:28:00;36.28;28.67;40.03;;
49732;Laerm;43666;51.442;6.778;2023-02-07T04:30:25;36.17;23.90;39.92;;
49732;Laerm;43666;51.442;6.778;2023-02-07T04:32:51;36.10;26.91;39.70;;
49732;Laerm;43666;51.442;6.778;2023-02-07T04:35:16;36.13;28.67;39.58;;
49732;Laerm;43666;51.442;6.778;2023-02-07T04:37:42;36.04;23.90;39.21;;
49732;Laerm;43666;51.442;6.778;2023-02-07T04:40:08;36.15;23.90;39.21;;
49732;Laerm;43666;51.442;6.778;2023-02-07T04:42:33;36.12;26.91;39.46;;
49732;Laerm;43666;51.442;6.778;2023-02-07T04:45:00;36.17;26.91;39.70;;
49732;Laerm;43666;51.442;6.778;2023-02-07T04:47:25;36.10;26.91;39.58;;
49732;Laerm;43666;51.442;6.778;2023-02-07T04:49:51;36.08;28.67;39.34;;
49732;Laerm;43666;51.442;6.778;2023-02-07T04:52:18;36.08;26.91;39.58;;
49732;Laerm;43666;51.442;6.778;2023-02-07T04:54:44;36.11;23.90;39.34;;
49732;Laerm;43666;51.442;6.778;2023-02-07T04:57:10;36.11;23.90;39.70;;
49732;Laerm;43666;51.442;6.778;2023-02-07T04:59:35;36.07;26.91;39.58;;
49732;Laerm;43666;51.442;6.778;2023-02-07T05:02:02;36.01;26.91;39.58;;
49732;Laerm;43666;51.442;6.778;2023-02-07T05:04:28;35.99;23.90;39.92;;
49732;Laerm;43666;51.442;6.778;2023-02-07T05:06:53;36.09;26.91;39.46;;
49732;Laerm;43666;51.442;6.778;2023-02-07T05:09:19;36.07;28.67;39.81;;
49732;Laerm;43666;51.442;6.778;2023-02-07T05:11:46;36.10;23.90;39.21;;
49732;Laerm;43666;51.442;6.778;2023-02-07T05:14:12;36.08;28.67;39.11;;
49732;Laerm;43666;51.442;6.778;2023-02-07T05:16:38;36.05;26.91;39.70;;
49732;Laerm;43666;51.442;6.778;2023-02-07T05:19:04;36.07;26.91;39.58;;
49732;Laerm;43666;51.442;6.778;2023-02-07T05:21:30;36.03;26.91;39.21;;
49732;Laerm;43666;51.442;6.778;2023-02-07T05:23:55;36.00;28.67;39.34;;
49732;Laerm;43666;51.442;6.778;2023-02-07T05:26:21;36.06;23.90;39.34;;
49732;Laerm;43666;51.442;6.778;2023-02-07T05:28:47;36.04;23.90;39.58;;
49732;Laerm;43666;51.442;6.778;2023-02-07T05:31:13;36.04;28.67;39.34;;
49732;Laerm;43666;51.442;6.778;2023-02-07T05:33:38;36.03;28.67;39.08;;
49732;Laerm;43666;51.442;6.778;2023-02-07T05:36:04;36.08;26.91;39.21;;
49732;Laerm;43666;51.442;6.778;2023-02-07T05:38:31;36.06;23.90;39.70;;
49732;Laerm;43666;51.442;6.778;2023-02-07T05:40:57;36.11;29.57;39.46;;
49732;Laerm;43666;51.442;6.778;2023-02-07T05:43:23;36.09;26.91;39.58;;
49732;Laerm;43666;51.442;6.778;2023-02-07T05:45:49;36.12;26.91;39.81;;
49732;Laerm;43666;51.442;6.778;2023-02-07T05:48:15;36.04;5.00;39.21;;
49732;Laerm;43666;51.442;6.778;2023-02-07T05:50:42;36.09;26.91;39.21;;
49732;Laerm;43666;51.442;6.778;2023-02-07T05:53:10;36.06;28.67;39.58;;
49732;Laerm;43666;51.442;6.778;2023-02-07T05:55:37;36.11;26.91;39.46;;
49732;Laerm;43666;51.442;6.778;2023-02-07T05:58:04;36.11;26.91;40.03;;
49732;Laerm;43666;51.442;6.778;2023-02-07T06:00:31;36.13;28.67;39.70;;
49732;Laerm;43666;51.442;6.778;2023-02-07T06:02:58;36.11;29.92;39.70;;
49732;Laerm;43666;51.442;6.778;2023-02-07T06:05:25;36.12;26.91;39.92;;
49732;Laerm;43666;51.442;6.778;2023-02-07T06:07:56;36.17;26.91;40.62;;
49732;Laerm;43666;51.442;6.778;2023-02-07T06:10:24;36.08;26.91;40.33;;
49732;Laerm;43666;51.442;6.778;2023-02-07T06:12:50;36.12;23.90;39.46;;
49732;Laerm;43666;51.442;6.778;2023-02-07T06:15:16;36.12;26.91;39.34;;
49732;Laerm;43666;51.442;6.778;2023-02-07T06:17:43;36.16;28.67;39.58;;
49732;Laerm;43666;51.442;6.778;2023-02-07T06:20:11;36.11;28.67;39.46;;
49732;Laerm;43666;51.442;6.778;2023-02-07T06:22:36;36.13;26.91;39.70;;
49732;Laerm;43666;51.442;6.778;2023-02-07T06:25:03;36.16;28.67;39.70;;
49732;Laerm;43666;51.442;6.778;2023-02-07T06:27:30;36.13;28.67;39.58;;
49732;Laerm;43666;51.442;6.778;2023-02-07T06:29:56;36.11;23.90;39.46;;
49732;Laerm;43666;51.442;6.778;2023-02-07T06:32:23;36.11;26.91;39.70;;
49732;Laerm;43666;51.442;6.778;2023-02-07T06:34:49;36.07;26.91;39.58;;
49732;Laerm;43666;51.442;6.778;2023-02-07T06:37:15;36.03;26.91;39.21;;
49732;Laerm;43666;51.442;6.778;2023-02-07T06:39:40;36.08;26.91;39.46;;
49732;Laerm;43666;51.442;6.778;2023-02-07T06:42:06;36.12;28.67;39.81;;
49732;Laerm;43666;51.442;6.778;2023-02-07T06:44:32;36.09;29.57;39.46;;
49732;Laerm;43666;51.442;6.778;2023-02-07T06:46:58;36.11;23.90;39.34;;
49732;Laerm;43666;51.442;6.778;2023-02-07T06:49:24;36.10;28.67;39.34;;
49732;Laerm;43666;51.442;6.778;2023-02-07T06:51:49;36.22;28.67;39.70;;
49732;Laerm;43666;51.442;6.778;2023-02-07T06:54:15;36.17;28.67;39.34;;
49732;Laerm;43666;51.442;6.778;2023-02-07T06:56:41;36.20;26.91;39.70;;
49732;Laerm;43666;51.442;6.778;2023-02-07T06:59:06;36.15;28.67;39.46;;
49732;Laerm;43666;51.442;6.778;2023-02-07T07:01:32;36.09;26.91;39.81;;
49732;Laerm;43666;51.442;6.778;2023-02-07T07:03:58;36.09;28.67;39.58;;
49732;Laerm;43666;51.442;6.778;2023-02-07T07:06:23;36.08;28.67;39.21;;
49732;Laerm;43666;51.442;6.778;2023-02-07T07:08:49;36.15;26.91;39.34;;
49732;Laerm;43666;51.442;6.778;2023-02-07T07:11:16;36.08;26.91;39.81;;
49732;Laerm;43666;51.442;6.778;2023-02-07T07:13:42;36.15;28.67;39.46;;
49732;Laerm;43666;51.442;6.778;2023-02-07T07:16:07;36.10;28.67;39.46;;
49732;Laerm;43666;51.442;6.778;2023-02-07T07:18:33;36.13;26.56;39.81;;
49732;Laerm;43666;51.442;6.778;2023-02-07T07:21:01;36.18;26.91;43.90;;
49732;Laerm;43666;51.442;6.778;2023-02-07T07:23:27;36.16;26.91;40.89;;
49732;Laerm;43666;51.442;6.778;2023-02-07T07:25:53;36.18;28.67;40.71;;
49732;Laerm;43666;51.442;6.778;2023-02-07T07:28:19;36.19;5.00;39.81;;
49732;Laerm;43666;51.442;6.778;2023-02-07T07:30:44;36.15;23.90;39.58;;
49732;Laerm;43666;51.442;6.778;2023-02-07T07:33:10;36.17;28.67;39.70;;
49732;Laerm;43666;51.442;6.778;2023-02-07T07:35:36;36.17;23.90;39.81;;
49732;Laerm;43666;51.442;6.778;2023-02-07T07:38:03;36.21;23.90;39.58;;
49732;Laerm;43666;51.442;6.778;2023-02-07T07:40:29;36.17;23.90;41.96;;
49732;Laerm;43666;51.442;6.778;2023-02-07T07:42:55;36.14;28.67;43.39;;
49732;Laerm;43666;51.442;6.778;2023-02-07T07:45:20;36.09;26.91;39.46;;
49732;Laerm;43666;51.442;6.778;2023-02-07T07:47:46;36.09;5.00;39.68;;
49732;Laerm;43666;51.442;6.778;2023-02-07T07:50:12;36.15;23.90;39.70;;
49732;Laerm;43666;51.442;6.778;2023-02-07T07:52:38;36.11;26.91;39.58;;
49732;Laerm;43666;51.442;6.778;2023-02-07T07:55:03;36.21;26.91;39.70;;
49732;Laerm;43666;51.442;6.778;2023-02-07T07:57:29;36.32;28.67;40.33;;
49732;Laerm;43666;51.442;6.778;2023-02-07T07:59:55;36.28;28.67;39.58;;
49732;Laerm;43666;51.442;6.778;2023-02-07T08:02:20;36.30;26.91;39.81;;
49732;Laerm;43666;51.442;6.778;2023-02-07T08:04:46;36.39;28.67;44.90;;
49732;Laerm;43666;51.442;6.778;2023-02-07T08:07:12;36.33;29.57;39.34;;
49732;Laerm;43666;51.442;6.778;2023-02-07T08:09:38;36.37;26.91;40.62;;
49732;Laerm;43666;51.442;6.778;2023-02-07T08:12:04;36.38;29.92;39.70;;
49732;Laerm;43666;51.442;6.778;2023-02-07T08:14:30;36.33;29.92;39.34;;
49732;Laerm;43666;51.442;6.778;2023-02-07T08:16:56;36.39;29.92;43.14;;
49732;Laerm;43666;51.442;6.778;2023-02-07T08:19:22;36.42;28.32;43.44;;
49732;Laerm;43666;51.442;6.778;2023-02-07T08:21:48;36.42;28.67;44.54;;
49732;Laerm;43666;51.442;6.778;2023-02-07T08:24:14;36.45;28.67;39.92;;
49732;Laerm;43666;51.442;6.778;2023-02-07T08:26:41;36.48;28.67;40.03;;
49732;Laerm;43666;51.442;6.778;2023-02-07T08:29:07;36.46;26.91;39.70;;
49732;Laerm;43666;51.442;6.778;2023-02-07T08:31:32;36.56;26.91;41.61;;
49732;Laerm;43666;51.442;6.778;2023-02-07T08:33:58;36.61;29.92;46.18;;
49732;Laerm;43666;51.442;6.778;2023-02-07T08:36:24;36.56;28.67;40.53;;
49732;Laerm;43666;51.442;6.778;2023-02-07T08:38:50;36.64;28.67;40.80;;
49732;Laerm;43666;51.442;6.778;2023-02-07T08:41:16;36.66;28.67;40.71;;
49732;Laerm;43666;51.442;6.778;2023-02-07T08:43:42;36.65;26.91;43.34;;
49732;Laerm;43666;51.442;6.778;2023-02-07T08:46:08;36.64;26.91;40.13;;
49732;Laerm;43666;51.442;6.778;2023-02-07T08:48:34;36.59;26.91;41.46;;
49732;Laerm;43666;51.442;6.778;2023-02-07T08:51:04;36.66;29.92;46.95;;
49732;Laerm;43666;51.442;6.778;2023-02-07T08:53:29;36.73;26.91;47.34;;
49732;Laerm;43666;51.442;6.778;2023-02-07T08:55:55;36.66;29.92;40.03;;
49732;Laerm;43666;51.442;6.778;2023-02-07T08:58:20;36.65;26.91;40.53;;
49732;Laerm;43666;51.442;6.778;2023-02-07T09:00:46;36.63;28.67;40.13;;
49732;Laerm;43666;51.442;6.778;2023-02-07T09:03:12;36.74;26.91;40.13;;
49732;Laerm;43666;51.442;6.778;2023-02-07T09:05:37;36.68;28.67;39.92;;
49732;Laerm;43666;51.442;6.778;2023-02-07T09:08:03;36.71;29.92;43.49;;
49732;Laerm;43666;51.442;6.778;2023-02-07T09:10:29;36.70;28.67;40.33;;
49732;Laerm;43666;51.442;6.778;2023-02-07T09:12:55;36.72;30.89;40.71;;
49732;Laerm;43666;51.442;6.778;2023-02-07T09:15:20;36.72;26.91;40.33;;
49732;Laerm;43666;51.442;6.778;2023-02-07T09:17:46;36.76;29.92;41.14;;
49732;Laerm;43666;51.442;6.778;2023-02-07T09:20:12;36.83;29.57;45.20;;
49732;Laerm;43666;51.442;6.778;2023-02-07T09:22:39;36.91;28.67;48.03;;
49732;Laerm;43666;51.442;6.778;2023-02-07T09:25:23;36.95;29.92;40.71;;
49732;Laerm;43666;51.442;6.778;2023-02-07T09:27:49;36.89;26.91;40.71;;
49732;Laerm;43666;51.442;6.778;2023-02-07T09:30:15;36.81;28.67;44.97;;
49732;Laerm;43666;51.442;6.778;2023-02-07T09:32:42;36.78;26.91;40.33;;
49732;Laerm;43666;51.442;6.778;2023-02-07T09:35:08;36.76;28.67;43.19;;
49732;Laerm;43666;51.442;6.778;2023-02-07T09:37:34;36.79;29.92;42.41;;
49732;Laerm;43666;51.442;6.778;2023-02-07T09:40:00;36.79;30.89;40.43;;
49732;Laerm;43666;51.442;6.778;2023-02-07T09:42:27;36.65;29.92;40.23;;
49732;Laerm;43666;51.442;6.778;2023-02-07T09:45:08;36.56;23.90;39.92;;
49732;Laerm;43666;51.442;6.778;2023-02-07T09:47:36;36.62;28.67;40.53;;
49732;Laerm;43666;51.442;6.778;2023-02-07T09:50:17;36.63;28.67;44.97;;
49732;Laerm;43666;51.442;6.778;2023-02-07T09:55:34;36.56;29.92;39.89;;
49732;Laerm;43666;51.442;6.778;2023-02-07T09:57:58;36.48;28.67;40.13;;
49732;Laerm;43666;51.442;6.778;2023-02-07T10:00:28;36.53;26.91;40.33;;
49732;Laerm;43666;51.442;6.778;2023-02-07T10:03:02;36.59;5.00;41.14;;
49732;Laerm;43666;51.442;6.778;2023-02-07T10:05:32;36.60;28.67;49.60;;
49732;Laerm;43666;51.442;6.778;2023-02-07T10:08:02;36.53;5.00;49.03;;
49732;Laerm;43666;51.442;6.778;2023-02-07T10:10:39;36.45;28.67;39.70;;
49732;Laerm;43666;51.442;6.778;2023-02-07T10:15:56;36.45;29.92;49.16;;
49732;Laerm;43666;51.442;6.778;2023-02-07T10:18:37;36.53;28.67;42.47;;
49732;Laerm;43666;51.442;6.778;2023-02-07T10:23:56;36.61;26.91;49.43;;
49732;Laerm;43666;51.442;6.778;2023-02-07T10:29:06;36.27;29.57;45.89;;
49732;Laerm;43666;51.442;6.778;2023-02-07T10:31:38;36.37;26.91;47.32;;
49732;Laerm;43666;51.442;6.778;2023-02-07T10:34:21;36.45;28.67;49.87;;
49732;Laerm;43666;51.442;6.778;2023-02-07T10:36:48;36.31;28.67;40.13;;
49732;Laerm;43666;51.442;6.778;2023-02-07T10:39:20;36.35;26.91;41.22;;
49732;Laerm;43666;51.442;6.778;2023-02-07T10:41:49;36.52;26.91;42.03;;
49732;Laerm;43666;51.442;6.778;2023-02-07T10:44:20;36.36;28.67;42.22;;
49732;Laerm;43666;51.442;6.778;2023-02-07T10:46:49;36.40;29.92;41.03;;
49732;Laerm;43666;51.442;6.778;2023-02-07T10:49:21;36.32;28.67;41.46;;
49732;Laerm;43666;51.442;6.778;2023-02-07T10:51:47;36.26;28.67;39.92;;
49732;Laerm;43666;51.442;6.778;2023-02-07T10:54:15;36.19;29.57;39.70;;
49732;Laerm;43666;51.442;6.778;2023-02-07T10:56:45;36.14;26.91;39.70;;
49732;Laerm;43666;51.442;6.778;2023-02-07T11:01:56;36.14;26.91;39.70;;
49732;Laerm;43666;51.442;6.778;2023-02-07T11:04:35;36.22;28.67;39.70;;
49732;Laerm;43666;51.442;6.778;2023-02-07T11:07:03;36.21;26.91;40.03;;
49732;Laerm;43666;51.442;6.778;2023-02-07T11:09:29;36.25;28.67;40.71;;
49732;Laerm;43666;51.442;6.778;2023-02-07T11:11:56;36.28;28.67;41.38;;
49732;Laerm;43666;51.442;6.778;2023-02-07T11:14:24;36.22;26.91;40.03;;
49732;Laerm;43666;51.442;6.778;2023-02-07T11:16:53;36.18;26.91;39.92;;
49732;Laerm;43666;51.442;6.778;2023-02-07T11:19:21;36.15;26.91;39.70;;
49732;Laerm;43666;51.442;6.778;2023-02-07T11:21:49;36.23;26.91;39.92;;
49732;Laerm;43666;51.442;6.778;2023-02-07T11:24:25;36.16;26.91;40.33;;
49732;Laerm;43666;51.442;6.778;2023-02-07T11:26:54;36.11;26.91;39.34;;
49732;Laerm;43666;51.442;6.778;2023-02-07T11:29:22;36.17;26.91;40.13;;
49732;Laerm;43666;51.442;6.778;2023-02-07T11:31:49;36.15;28.67;39.81;;
49732;Laerm;43666;51.442;6.778;2023-02-07T11:36:45;36.17;26.91;39.46;;
49732;Laerm;43666;51.442;6.778;2023-02-07T11:39:14;36.13;28.67;39.46;;
49732;Laerm;43666;51.442;6.778;2023-02-07T11:41:41;36.14;28.67;39.21;;
49732;Laerm;43666;51.442;6.778;2023-02-07T11:44:14;36.14;23.90;39.34;;
49732;Laerm;43666;51.442;6.778;2023-02-07T11:46:40;36.13;23.90;39.58;;
49732;Laerm;43666;51.442;6.778;2023-02-07T11:49:07;36.14;28.67;39.21;;
49732;Laerm;43666;51.442;6.778;2023-02-07T11:51:43;36.07;26.91;39.58;;
49732;Laerm;43666;51.442;6.778;2023-02-07T11:54:09;36.12;28.67;39.46;;
49732;Laerm;43666;51.442;6.778;2023-02-07T11:56:37;36.10;26.91;39.34;;
49732;Laerm;43666;51.442;6.778;2023-02-07T11:59:13;36.07;29.92;39.34;;
49732;Laerm;43666;51.442;6.778;2023-02-07T12:01:42;36.06;26.91;39.34;;
49732;Laerm;43666;51.442;6.778;2023-02-07T12:04:17;36.10;28.67;39.46;;
49732;Laerm;43666;51.442;6.778;2023-02-07T12:06:45;36.07;26.91;39.46;;
49732;Laerm;43666;51.442;6.778;2023-02-07T12:09:26;36.12;28.67;39.23;;
49732;Laerm;43666;51.442;6.778;2023-02-07T12:11:56;36.12;26.91;39.34;;
49732;Laerm;43666;51.442;6.778;2023-02-07T12:14:29;36.09;28.67;39.57;;
49732;Laerm;43666;51.442;6.778;2023-02-07T12:16:58;36.06;29.92;39.46;;
49732;Laerm;43666;51.442;6.778;2023-02-07T12:24:28;36.06;28.67;39.81;;
49732;Laerm;43666;51.442;6.778;2023-02-07T12:35:30;36.15;28.67;39.58;;
49732;Laerm;43666;51.442;6.778;2023-02-07T12:40:39;36.22;29.92;39.11;;
49732;Laerm;43666;51.442;6.778;2023-02-07T12:43:17;36.26;29.92;39.34;;
49732;Laerm;43666;51.442;6.778;2023-02-07T12:53:25;36.26;29.92;39.21;;
49732;Laerm;43666;51.442;6.778;2023-02-07T12:55:57;36.22;29.92;39.34;;
49732;Laerm;43666;51.442;6.778;2023-02-07T13:01:19;36.23;29.92;39.34;;
49732;Laerm;43666;51.442;6.778;2023-02-07T13:04:28;36.33;26.91;39.08;;
49732;Laerm;43666;51.442;6.778;2023-02-07T13:09:16;36.30;29.57;39.46;;
49732;Laerm;43666;51.442;6.778;2023-02-07T13:19:46;36.24;28.67;39.34;;
49732;Laerm;43666;51.442;6.778;2023-02-07T13:24:44;36.48;31.68;39.34;;
49732;Laerm;43666;51.442;6.778;2023-02-07T13:27:15;36.35;29.92;39.08;;
49732;Laerm;43666;51.442;6.778;2023-02-07T13:29:46;36.33;30.89;39.34;;
49732;Laerm;43666;51.442;6.778;2023-02-07T13:32:20;36.33;29.92;39.81;;
49732;Laerm;43666;51.442;6.778;2023-02-07T13:37:34;36.34;30.89;39.21;;
49732;Laerm;43666;51.442;6.778;2023-02-07T13:48:25;36.49;30.89;39.46;;
49732;Laerm;43666;51.442;6.778;2023-02-07T13:51:03;36.52;31.68;39.58;;
49732;Laerm;43666;51.442;6.778;2023-02-07T13:53:57;36.60;31.68;39.70;;
49732;Laerm;43666;51.442;6.778;2023-02-07T13:56:31;36.45;30.89;39.34;;
49732;Laerm;43666;51.442;6.778;2023-02-07T14:07:17;36.32;29.92;39.34;;
49732;Laerm;43666;51.442;6.778;2023-02-07T14:09:46;36.30;29.92;39.11;;
49732;Laerm;43666;51.442;6.778;2023-02-07T14:12:20;36.31;26.91;39.81;;
49732;Laerm;43666;51.442;6.778;2023-02-07T14:14:47;36.30;30.89;39.21;;
49732;Laerm;43666;51.442;6.778;2023-02-07T14:17:14;36.42;30.89;39.46;;
49732;Laerm;43666;51.442;6.778;2023-02-07T14:19:59;36.42;29.92;39.34;;
49732;Laerm;43666;51.442;6.778;2023-02-07T14:22:29;36.45;31.68;39.34;;
49732;Laerm;43666;51.442;6.778;2023-02-07T14:27:29;36.44;30.89;39.81;;
49732;Laerm;43666;51.442;6.778;2023-02-07T14:37:35;36.56;30.89;39.21;;
49732;Laerm;43666;51.442;6.778;2023-02-07T14:40:06;36.56;31.68;39.46;;
49732;Laerm;43666;51.442;6.778;2023-02-07T14:42:32;36.52;30.89;39.70;;
49732;Laerm;43666;51.442;6.778;2023-02-07T14:44:58;36.62;29.92;39.58;;
49732;Laerm;43666;51.442;6.778;2023-02-07T14:47:25;36.58;31.68;39.34;;
49732;Laerm;43666;51.442;6.778;2023-02-07T14:50:02;36.59;31.68;39.46;;
49732;Laerm;43666;51.442;6.778;2023-02-07T14:52:32;36.55;30.89;39.70;;
49732;Laerm;43666;51.442;6.778;2023-02-07T14:54:59;36.75;30.89;39.46;;
49732;Laerm;43666;51.442;6.778;2023-02-07T14:57:38;36.70;32.35;39.70;;
49732;Laerm;43666;51.442;6.778;2023-02-07T15:02:41;36.60;29.92;39.46;;
49732;Laerm;43666;51.442;6.778;2023-02-07T15:05:19;36.66;31.33;39.34;;
49732;Laerm;43666;51.442;6.778;2023-02-07T15:07:46;36.59;31.68;39.34;;
49732;Laerm;43666;51.442;6.778;2023-02-07T15:10:20;36.64;32.35;39.46;;
49732;Laerm;43666;51.442;6.778;2023-02-07T15:12:46;36.59;30.89;39.21;;
49732;Laerm;43666;51.442;6.778;2023-02-07T15:15:16;36.57;31.68;39.46;;
49732;Laerm;43666;51.442;6.778;2023-02-07T15:17:42;36.60;29.92;39.34;;
49732;Laerm;43666;51.442;6.778;2023-02-07T15:20:13;36.60;30.89;39.46;;
49732;Laerm;43666;51.442;6.778;2023-02-07T15:22:40;36.59;30.89;39.35;;
49732;Laerm;43666;51.442;6.778;2023-02-07T15:25:10;36.54;30.89;39.58;;
49732;Laerm;43666;51.442;6.778;2023-02-07T15:27:36;36.48;28.67;39.58;;
49732;Laerm;43666;51.442;6.778;2023-02-07T15:30:03;36.53;32.00;39.58;;
49732;Laerm;43666;51.442;6.778;2023-02-07T15:32:33;36.46;30.89;39.34;;
49732;Laerm;43666;51.442;6.778;2023-02-07T15:35:18;36.41;30.89;39.46;;
49732;Laerm;43666;51.442;6.778;2023-02-07T15:37:45;36.43;30.89;39.46;;
49732;Laerm;43666;51.442;6.778;2023-02-07T15:40:13;36.46;31.68;39.46;;
49732;Laerm;43666;51.442;6.778;2023-02-07T15:42:49;36.42;23.90;39.68;;
49732;Laerm;43666;51.442;6.778;2023-02-07T15:45:26;36.34;29.92;39.21;;
49732;Laerm;43666;51.442;6.778;2023-02-07T15:47:59;36.36;30.89;39.21;;
49732;Laerm;43666;51.442;6.778;2023-02-07T15:50:27;36.29;29.92;39.46;;
49732;Laerm;43666;51.442;6.778;2023-02-07T15:52:57;36.27;30.89;39.21;;